Time;durP1;ratioP1;P1;durP2;ratioP2;P2;SDS_P1;SDS_P2;PMS_P1;PMS_P2;Temp;Humidity;BMP_temperature;BMP_pressure;BME280_temperature;BME280_humidity;BME280_pressure;Samples;Min_cycle;Max_cycle;Signal;HPM_P1;HPM_P2
2022/10/10 00:00:06;;;;;;;9.48;4.75;;;14.40;93.60;;;;;;5035455;28;20026;-65
2022/10/10 00:02:33;;;;;;;7.18;5.15;;;14.40;93.60;;;;;;5035802;28;20474;-65
2022/10/10 00:04:59;;;;;;;10.35;5.72;;;14.40;93.70;;;;;;5035037;28;20033;-65
2022/10/10 00:07:24;;;;;;;10.52;5.43;;;14.30;93.70;;;;;;5034713;28;20052;-65
2022/10/10 00:09:50;;;;;;;6.07;4.88;;;14.30;93.70;;;;;;5035253;28;20029;-65
2022/10/10 00:12:15;;;;;;;8.88;5.60;;;14.30;93.80;;;;;;5034754;28;20026;-64
2022/10/10 00:14:41;;;;;;;9.48;5.35;;;14.30;93.70;;;;;;5035330;28;20034;-65
2022/10/10 00:17:06;;;;;;;8.23;4.80;;;14.30;93.80;;;;;;5034954;28;20071;-65
2022/10/10 00:19:32;;;;;;;6.07;4.55;;;14.30;93.90;;;;;;5034851;28;20026;-65
2022/10/10 00:21:57;;;;;;;9.30;4.55;;;14.20;93.90;;;;;;5034857;28;20079;-64
2022/10/10 00:24:23;;;;;;;7.60;4.78;;;14.20;93.90;;;;;;5034680;28;20029;-65
2022/10/10 00:26:48;;;;;;;11.75;5.15;;;14.20;93.90;;;;;;5034756;28;20017;-65
2022/10/10 00:29:14;;;;;;;9.93;4.68;;;14.20;93.90;;;;;;5034923;28;20087;-64
2022/10/10 00:31:39;;;;;;;7.95;5.05;;;14.20;94.00;;;;;;5034824;28;20471;-65
2022/10/10 00:34:05;;;;;;;9.30;4.22;;;14.20;94.00;;;;;;5034440;28;20064;-63
2022/10/10 00:36:31;;;;;;;10.07;4.60;;;14.20;94.10;;;;;;5034576;28;20025;-64
2022/10/10 00:38:56;;;;;;;8.13;4.53;;;14.20;94.10;;;;;;5033738;28;20097;-64
2022/10/10 00:41:22;;;;;;;9.52;4.90;;;14.20;94.10;;;;;;5034413;28;20490;-64
2022/10/10 00:44:10;;;;;;;9.07;4.88;;;14.10;94.10;;;;;;5034325;28;20089;-65
2022/10/10 00:46:36;;;;;;;8.75;4.93;;;14.10;94.10;;;;;;5034468;28;20025;-63
2022/10/10 00:49:09;;;;;;;6.60;5.28;;;14.10;94.10;;;;;;5034682;28;20029;-65
2022/10/10 00:51:36;;;;;;;9.35;5.10;;;14.10;94.10;;;;;;5034468;28;20418;-63
2022/10/10 00:54:08;;;;;;;6.57;4.78;;;14.10;94.10;;;;;;5033673;28;20040;-65
2022/10/10 00:56:44;;;;;;;8.48;4.63;;;14.10;94.10;;;;;;5034297;28;20505;-64
2022/10/10 00:59:11;;;;;;;9.38;5.13;;;14.10;94.10;;;;;;5034124;28;20029;-63
2022/10/10 01:01:39;;;;;;;7.70;4.90;;;14.00;94.20;;;;;;5034200;28;20033;-64
2022/10/10 01:04:04;;;;;;;8.23;5.25;;;14.10;94.30;;;;;;5034090;28;20391;-64
2022/10/10 01:06:32;;;;;;;11.93;5.22;;;14.10;94.40;;;;;;5034230;28;20018;-65
2022/10/10 01:08:58;;;;;;;7.38;4.93;;;14.00;94.30;;;;;;5033716;28;20489;-65
2022/10/10 01:11:39;;;;;;;9.40;5.20;;;14.00;94.40;;;;;;5034124;28;20026;-65
2022/10/10 01:14:39;;;;;;;8.15;4.93;;;14.00;94.40;;;;;;5033814;28;20073;-65
2022/10/10 01:17:28;;;;;;;7.18;4.68;;;14.00;94.50;;;;;;5022296;28;20045;-66
2022/10/10 01:20:16;;;;;;;6.03;4.32;;;14.00;94.50;;;;;;5032355;28;20120;-65
2022/10/10 01:23:04;;;;;;;9.00;4.40;;;14.00;94.60;;;;;;5033459;28;20239;-65
2022/10/10 01:25:50;;;;;;;8.60;4.70;;;14.00;94.70;;;;;;5033594;28;20014;-66
2022/10/10 01:28:25;;;;;;;7.18;4.15;;;13.90;94.70;;;;;;5034205;28;20030;-65
2022/10/10 01:30:51;;;;;;;7.78;4.53;;;13.90;94.70;;;;;;5029362;28;20215;-64
2022/10/10 01:33:26;;;;;;;6.68;4.47;;;13.90;94.70;;;;;;5026161;28;20479;-65
2022/10/10 01:36:03;;;;;;;8.85;4.93;;;13.90;94.70;;;;;;5010957;28;20034;-62
2022/10/10 01:38:49;;;;;;;8.93;4.97;;;13.90;94.80;;;;;;5011666;28;20599;-64
2022/10/10 01:41:35;;;;;;;9.32;4.70;;;13.90;94.80;;;;;;5013728;28;20022;-65
2022/10/10 01:44:00;;;;;;;10.52;5.20;;;13.80;94.80;;;;;;5013715;28;20025;-65
2022/10/10 01:46:26;;;;;;;5.72;4.18;;;13.80;94.90;;;;;;5013482;28;20368;-65
2022/10/10 01:48:56;;;;;;;7.00;5.03;;;13.80;94.90;;;;;;5013706;28;20030;-64
2022/10/10 01:51:21;;;;;;;7.53;4.63;;;13.80;95.00;;;;;;5013223;28;20036;-64
2022/10/10 01:54:07;;;;;;;7.82;4.60;;;13.80;95.00;;;;;;5013396;28;20113;-65
2022/10/10 01:57:09;;;;;;;7.18;4.47;;;13.80;95.10;;;;;;5028439;28;20391;-65
2022/10/10 02:00:04;;;;;;;7.30;4.00;;;13.70;95.10;;;;;;5014061;28;20021;-65
2022/10/10 02:02:46;;;;;;;9.93;4.55;;;13.70;95.20;;;;;;5013473;28;20032;-64
2022/10/10 02:05:37;;;;;;;6.53;4.20;;;13.70;95.20;;;;;;5013542;28;20121;-64
2022/10/10 02:08:26;;;;;;;9.50;5.00;;;13.70;95.20;;;;;;5012961;28;20022;-64
2022/10/10 02:10:57;;;;;;;9.65;4.70;;;13.70;95.30;;;;;;5012526;28;20038;-64
2022/10/10 02:13:28;;;;;;;6.45;4.47;;;13.70;95.30;;;;;;5013230;28;20120;-63
2022/10/10 02:15:58;;;;;;;7.75;4.68;;;13.60;95.30;;;;;;5012982;28;20022;-64
2022/10/10 02:18:27;;;;;;;6.50;4.30;;;13.60;95.40;;;;;;5011525;28;20076;-64
2022/10/10 02:20:54;;;;;;;10.18;4.43;;;13.60;95.50;;;;;;5011837;28;20018;-64
2022/10/10 02:23:21;;;;;;;7.18;4.60;;;13.60;95.50;;;;;;5012145;28;20034;-64
2022/10/10 02:25:51;;;;;;;8.23;4.68;;;13.60;95.50;;;;;;5013000;28;20530;-62
2022/10/10 02:28:27;;;;;;;6.95;4.57;;;13.60;95.50;;;;;;5013192;28;20026;-63
2022/10/10 02:30:57;;;;;;;9.25;4.90;;;13.60;95.50;;;;;;5013008;28;20056;-65
2022/10/10 02:33:30;;;;;;;10.70;4.55;;;13.60;95.60;;;;;;5013191;28;20447;-64
2022/10/10 02:35:57;;;;;;;7.30;4.80;;;13.60;95.60;;;;;;5012583;28;20030;-65
2022/10/10 02:38:24;;;;;;;6.25;4.50;;;13.60;95.70;;;;;;5013425;28;20113;-64
2022/10/10 02:40:51;;;;;;;11.48;4.85;;;13.50;95.60;;;;;;5012902;28;20022;-64
2022/10/10 02:43:18;;;;;;;8.70;4.60;;;13.50;95.70;;;;;;5012930;28;20049;-63
2022/10/10 02:45:44;;;;;;;7.97;5.07;;;13.50;95.80;;;;;;5013242;28;20110;-64
2022/10/10 02:48:10;;;;;;;7.03;3.95;;;13.50;95.80;;;;;;5015612;28;20025;-63
2022/10/10 02:50:36;;;;;;;7.10;4.32;;;13.50;95.80;;;;;;5016602;28;20017;-63
2022/10/10 02:53:02;;;;;;;7.80;4.50;;;13.50;95.90;;;;;;5016916;28;20049;-65
2022/10/10 02:55:28;;;;;;;7.97;4.35;;;13.50;95.90;;;;;;5016801;28;20375;-63
2022/10/10 02:57:53;;;;;;;8.27;4.82;;;13.40;95.90;;;;;;5016513;28;20108;-64
2022/10/10 03:00:19;;;;;;;13.10;4.72;;;13.50;95.90;;;;;;5016762;28;20034;-65
2022/10/10 03:02:45;;;;;;;9.15;5.03;;;13.40;96.00;;;;;;5016760;28;20022;-65
2022/10/10 03:05:11;;;;;;;8.43;4.63;;;13.40;96.00;;;;;;5016590;28;20529;-64
2022/10/10 03:07:36;;;;;;;9.13;4.57;;;13.40;96.00;;;;;;5016403;28;20030;-65
2022/10/10 03:10:06;;;;;;;6.68;4.40;;;13.40;96.10;;;;;;5016552;28;20475;-64
2022/10/10 03:12:32;;;;;;;7.13;4.07;;;13.40;96.10;;;;;;5016597;28;20072;-65
2022/10/10 03:14:58;;;;;;;7.57;5.00;;;13.40;96.10;;;;;;5016588;28;20084;-65
2022/10/10 03:17:23;;;;;;;10.52;4.90;;;13.40;96.20;;;;;;5016237;28;20426;-64
2022/10/10 03:19:49;;;;;;;8.90;4.90;;;13.30;96.20;;;;;;5016077;28;20026;-63
2022/10/10 03:22:14;;;;;;;9.68;4.63;;;13.30;96.30;;;;;;5016133;28;20022;-64
2022/10/10 03:24:40;;;;;;;7.35;4.45;;;13.30;96.30;;;;;;5016358;28;20419;-66
2022/10/10 03:27:05;;;;;;;10.18;4.80;;;13.30;96.40;;;;;;5016024;28;20022;-65
2022/10/10 03:29:31;;;;;;;8.80;4.65;;;13.30;96.50;;;;;;5016166;28;20018;-65
2022/10/10 03:31:57;;;;;;;8.95;4.10;;;13.30;96.50;;;;;;5016087;28;20071;-65
2022/10/10 03:34:22;;;;;;;9.50;4.43;;;13.30;96.50;;;;;;5031011;28;20038;-65
2022/10/10 03:36:48;;;;;;;10.88;4.32;;;13.30;96.60;;;;;;5014677;28;20030;-65
2022/10/10 03:39:13;;;;;;;10.80;4.40;;;13.30;96.70;;;;;;5015956;28;20159;-65
2022/10/10 03:41:39;;;;;;;5.95;4.30;;;13.20;96.60;;;;;;5015721;28;20098;-65
2022/10/10 03:44:04;;;;;;;10.25;5.10;;;13.20;96.70;;;;;;5015923;28;20036;-65
2022/10/10 03:46:30;;;;;;;8.25;4.35;;;13.20;96.70;;;;;;5015936;28;20094;-65
2022/10/10 03:48:55;;;;;;;6.78;3.97;;;13.20;96.70;;;;;;5015461;28;20568;-65
2022/10/10 03:51:21;;;;;;;7.18;5.50;;;13.20;96.80;;;;;;5014504;28;20410;-65
2022/10/10 03:53:46;;;;;;;6.63;4.60;;;13.20;96.90;;;;;;5015559;28;20084;-65
2022/10/10 03:56:12;;;;;;;9.70;5.15;;;13.20;97.00;;;;;;5015522;28;20113;-65
2022/10/10 03:58:37;;;;;;;10.65;5.43;;;13.20;97.00;;;;;;5014937;28;20044;-64
2022/10/10 04:01:04;;;;;;;6.32;4.25;;;13.20;97.10;;;;;;5015726;28;20078;-65
2022/10/10 04:03:30;;;;;;;9.35;4.35;;;13.10;97.20;;;;;;5015200;28;20030;-65
2022/10/10 04:05:56;;;;;;;12.32;4.35;;;13.10;97.20;;;;;;5015482;28;20033;-64
2022/10/10 04:08:22;;;;;;;10.60;4.60;;;13.10;97.30;;;;;;5015326;28;20029;-64
2022/10/10 04:10:50;;;;;;;11.35;4.63;;;13.10;97.30;;;;;;5015226;28;20021;-65
2022/10/10 04:13:16;;;;;;;10.00;4.50;;;13.10;97.40;;;;;;5015108;28;20094;-65
2022/10/10 04:15:41;;;;;;;10.07;4.57;;;13.10;97.40;;;;;;5015532;28;20090;-63
2022/10/10 04:18:07;;;;;;;8.45;4.10;;;13.10;97.50;;;;;;5014909;28;20487;-66
2022/10/10 04:20:32;;;;;;;10.63;4.45;;;13.10;97.60;;;;;;5030370;28;20479;-65
2022/10/10 04:22:58;;;;;;;8.85;4.68;;;13.10;97.60;;;;;;5014990;28;20037;-65
2022/10/10 04:25:24;;;;;;;8.20;4.97;;;13.10;97.60;;;;;;5015203;28;20490;-65
2022/10/10 04:27:49;;;;;;;7.47;4.32;;;13.10;97.70;;;;;;5014901;28;20028;-65
2022/10/10 04:30:15;;;;;;;10.13;4.68;;;13.00;97.70;;;;;;5015217;28;20030;-63
2022/10/10 04:32:41;;;;;;;10.05;4.78;;;13.10;97.70;;;;;;5014757;28;20073;-64
2022/10/10 04:35:07;;;;;;;7.65;4.90;;;13.10;97.70;;;;;;5015021;28;20049;-61
2022/10/10 04:37:33;;;;;;;6.93;4.28;;;13.10;97.80;;;;;;5014953;28;20079;-61
2022/10/10 04:39:58;;;;;;;7.53;4.75;;;13.00;97.80;;;;;;5025142;28;20108;-64
2022/10/10 04:42:24;;;;;;;9.80;4.50;;;13.00;97.90;;;;;;5043318;28;20161;-63
2022/10/10 04:44:49;;;;;;;10.07;4.93;;;13.00;97.90;;;;;;5051893;28;20053;-63
2022/10/10 04:47:16;;;;;;;9.30;4.68;;;13.00;97.90;;;;;;5044046;28;20514;-62
2022/10/10 04:49:41;;;;;;;11.45;4.38;;;13.00;98.00;;;;;;5028146;28;20021;-64
2022/10/10 04:52:10;;;;;;;9.43;4.40;;;13.00;98.00;;;;;;5054297;28;20036;-62
2022/10/10 04:54:36;;;;;;;10.45;4.68;;;12.90;98.10;;;;;;5037135;28;20068;-65
2022/10/10 04:57:02;;;;;;;10.50;4.88;;;13.00;98.00;;;;;;5032569;28;20464;-64
2022/10/10 04:59:27;;;;;;;7.75;4.70;;;12.90;98.10;;;;;;5045790;28;20059;-64
2022/10/10 05:01:53;;;;;;;7.03;4.40;;;12.90;98.20;;;;;;5027125;28;20250;-65
2022/10/10 05:04:18;;;;;;;7.28;4.38;;;12.90;98.20;;;;;;5041134;28;20036;-65
2022/10/10 05:06:44;;;;;;;9.63;4.40;;;12.90;98.20;;;;;;5034145;28;20029;-64
2022/10/10 05:09:09;;;;;;;6.45;4.10;;;12.90;98.30;;;;;;5030161;28;20079;-64
2022/10/10 05:11:35;;;;;;;9.23;4.40;;;12.80;98.50;;;;;;5032151;28;20025;-65
2022/10/10 05:14:01;;;;;;;7.95;4.80;;;12.90;98.40;;;;;;5033803;28;20038;-64
2022/10/10 05:16:27;;;;;;;12.05;5.03;;;12.90;98.30;;;;;;5033436;28;20025;-64
2022/10/10 05:18:53;;;;;;;8.35;4.82;;;12.80;98.20;;;;;;5043154;28;20021;-64
2022/10/10 05:21:18;;;;;;;10.07;4.63;;;12.80;97.60;;;;;;5019838;28;20360;-62
2022/10/10 05:23:44;;;;;;;8.20;4.50;;;12.80;97.60;;;;;;5019579;28;20041;-64
2022/10/10 05:26:10;;;;;;;10.93;4.47;;;12.90;97.60;;;;;;5018204;28;20060;-64
2022/10/10 05:28:36;;;;;;;8.43;4.63;;;12.80;97.60;;;;;;5024919;28;20028;-64
2022/10/10 05:31:03;;;;;;;10.43;5.07;;;12.80;97.70;;;;;;5022775;28;20025;-64
2022/10/10 05:33:28;;;;;;;7.60;5.05;;;12.80;97.60;;;;;;5026996;28;20036;-65
2022/10/10 05:36:03;;;;;;;8.60;4.55;;;12.80;97.80;;;;;;5033596;28;20386;-63
2022/10/10 05:38:28;;;;;;;9.98;5.53;;;12.80;97.80;;;;;;5033532;28;20078;-64
2022/10/10 05:40:55;;;;;;;14.63;5.75;;;12.80;98.00;;;;;;5032245;28;20100;-64
2022/10/10 05:43:20;;;;;;;8.68;5.82;;;12.80;98.00;;;;;;5031693;28;20018;-64
2022/10/10 05:45:46;;;;;;;9.40;5.40;;;12.70;98.00;;;;;;5026560;28;20030;-63
2022/10/10 05:48:11;;;;;;;12.73;5.28;;;12.70;98.10;;;;;;5029071;28;20020;-64
2022/10/10 05:50:39;;;;;;;12.07;5.10;;;12.70;98.10;;;;;;5047971;28;20021;-65
2022/10/10 05:53:06;;;;;;;17.70;6.03;;;12.60;98.10;;;;;;5028883;28;20033;-63
2022/10/10 05:55:32;;;;;;;11.23;5.53;;;12.60;98.30;;;;;;5030881;28;20053;-63
2022/10/10 05:57:58;;;;;;;10.98;5.40;;;12.60;98.30;;;;;;5023970;28;20033;-65
2022/10/10 06:00:23;;;;;;;11.68;5.63;;;12.60;98.30;;;;;;5039520;28;20078;-64
2022/10/10 06:02:49;;;;;;;8.60;4.95;;;12.60;98.30;;;;;;5044051;28;20101;-63
2022/10/10 06:05:15;;;;;;;12.48;5.97;;;12.60;98.30;;;;;;5028317;28;20025;-64
2022/10/10 06:07:40;;;;;;;9.38;6.32;;;12.60;98.40;;;;;;5024958;28;20033;-64
2022/10/10 06:10:07;;;;;;;6.57;4.65;;;12.60;98.40;;;;;;5033913;28;20117;-64
2022/10/10 06:12:33;;;;;;;11.93;5.28;;;12.50;98.40;;;;;;5046434;28;20025;-63
2022/10/10 06:14:58;;;;;;;13.60;6.28;;;12.50;98.80;;;;;;5040164;28;20037;-63
2022/10/10 06:17:24;;;;;;;9.90;4.28;;;12.60;99.40;;;;;;5035480;28;20072;-63
2022/10/10 06:19:49;;;;;;;8.38;4.75;;;12.60;99.60;;;;;;5049900;28;20029;-62
2022/10/10 06:22:15;;;;;;;11.60;5.18;;;12.60;99.60;;;;;;5043476;28;20017;-63
2022/10/10 06:24:40;;;;;;;9.93;5.20;;;12.70;99.60;;;;;;5032943;28;20390;-64
2022/10/10 06:27:06;;;;;;;7.72;4.50;;;12.70;99.60;;;;;;5031638;28;20032;-62
2022/10/10 06:29:31;;;;;;;7.15;4.35;;;12.70;99.60;;;;;;5031681;28;20057;-63
2022/10/10 06:31:57;;;;;;;7.45;4.65;;;12.70;99.60;;;;;;5032692;28;20054;-62
2022/10/10 06:34:22;;;;;;;13.18;4.82;;;12.70;99.60;;;;;;5032550;28;20108;-63
2022/10/10 06:36:50;;;;;;;11.77;5.30;;;12.80;99.60;;;;;;5032491;28;20037;-64
2022/10/10 06:39:16;;;;;;;7.88;3.95;;;12.80;99.70;;;;;;5032694;28;20022;-66
2022/10/10 06:41:41;;;;;;;7.30;4.70;;;12.80;99.70;;;;;;5032387;28;20106;-64
2022/10/10 06:44:07;;;;;;;8.65;4.28;;;12.80;99.70;;;;;;5032936;28;20025;-63
2022/10/10 06:46:36;;;;;;;8.85;4.60;;;12.80;99.80;;;;;;5032944;28;20509;-64
2022/10/10 06:49:04;;;;;;;7.32;3.00;;;12.90;99.90;;;;;;5052320;28;20393;-64
2022/10/10 06:51:30;;;;;;;7.45;4.03;;;12.90;99.90;;;;;;5052504;28;20025;-64
2022/10/10 06:53:57;;;;;;;9.80;5.68;;;13.00;99.90;;;;;;5041552;28;20049;-63
2022/10/10 06:56:23;;;;;;;6.43;4.82;;;13.00;99.80;;;;;;5032283;28;20025;-64
2022/10/10 06:58:49;;;;;;;12.95;5.78;;;13.00;99.80;;;;;;5033000;28;20029;-63
2022/10/10 07:01:17;;;;;;;12.25;4.68;;;13.00;99.90;;;;;;5032551;28;20026;-63
2022/10/10 07:03:43;;;;;;;10.27;4.72;;;13.00;99.80;;;;;;5031257;28;20104;-61
2022/10/10 07:06:10;;;;;;;8.50;4.40;;;13.00;99.80;;;;;;5032174;28;20080;-64
2022/10/10 07:08:36;;;;;;;10.60;4.57;;;13.10;99.80;;;;;;5032240;28;20013;-62
2022/10/10 07:11:02;;;;;;;8.43;4.88;;;13.00;99.80;;;;;;5032555;28;20037;-62
2022/10/10 07:13:27;;;;;;;8.98;3.70;;;13.10;99.80;;;;;;5032186;28;20112;-63
2022/10/10 07:15:53;;;;;;;6.38;4.63;;;13.10;99.70;;;;;;5047650;28;20083;-63
2022/10/10 07:18:19;;;;;;;11.88;5.28;;;13.10;99.50;;;;;;5032350;28;20105;-66
2022/10/10 07:20:45;;;;;;;7.55;5.15;;;13.10;99.60;;;;;;5032296;28;20029;-63
2022/10/10 07:23:11;;;;;;;12.73;5.03;;;13.20;99.60;;;;;;5032859;28;20035;-64
2022/10/10 07:25:38;;;;;;;15.88;5.45;;;13.20;99.70;;;;;;5031895;28;20440;-62
2022/10/10 07:28:06;;;;;;;12.32;5.47;;;13.20;99.90;;;;;;5032279;28;20026;-62
2022/10/10 07:30:32;;;;;;;12.20;5.85;;;13.30;99.90;;;;;;5032346;28;20107;-62
2022/10/10 07:32:57;;;;;;;21.42;7.90;;;13.30;99.90;;;;;;5032335;28;20486;-63
2022/10/10 07:35:23;;;;;;;11.55;5.28;;;13.30;99.90;;;;;;5035903;28;20037;-62
2022/10/10 07:37:54;;;;;;;24.58;7.20;;;13.40;99.90;;;;;;5035889;28;20063;-63
2022/10/10 07:40:20;;;;;;;15.93;7.15;;;13.40;99.90;;;;;;5035011;28;20500;-63
2022/10/10 07:42:46;;;;;;;16.67;7.63;;;13.40;99.90;;;;;;5035748;28;20022;-63
2022/10/10 07:45:11;;;;;;;13.45;6.75;;;13.40;99.90;;;;;;5035542;28;20486;-63
2022/10/10 07:47:38;;;;;;;10.38;5.80;;;13.40;99.90;;;;;;5035210;28;20491;-64
2022/10/10 07:50:05;;;;;;;13.48;7.10;;;13.40;99.90;;;;;;5035409;28;20044;-63
2022/10/10 07:52:31;;;;;;;18.20;7.53;;;13.50;99.90;;;;;;5035552;28;20066;-64
2022/10/10 07:54:56;;;;;;;23.10;10.57;;;13.40;99.90;;;;;;5035135;28;20116;-63
2022/10/10 07:57:22;;;;;;;17.25;7.15;;;13.50;99.90;;;;;;5035253;28;20364;-63
2022/10/10 07:59:48;;;;;;;17.33;7.90;;;13.50;99.90;;;;;;5034853;28;20508;-63
2022/10/10 08:02:13;;;;;;;16.17;7.78;;;13.50;99.90;;;;;;5035177;28;20367;-63
2022/10/10 08:04:39;;;;;;;11.02;6.53;;;13.50;99.90;;;;;;5035543;28;20116;-63
2022/10/10 08:07:05;;;;;;;14.75;6.57;;;13.50;99.90;;;;;;5036105;28;20506;-63
2022/10/10 08:09:31;;;;;;;10.90;7.00;;;13.50;99.90;;;;;;5034938;28;20025;-63
2022/10/10 08:11:57;;;;;;;15.80;6.65;;;13.60;99.90;;;;;;5035156;28;20032;-63
2022/10/10 08:14:22;;;;;;;13.32;6.15;;;13.50;99.90;;;;;;5035299;28;20033;-63
2022/10/10 08:16:48;;;;;;;9.68;5.35;;;13.60;99.90;;;;;;5034795;28;20025;-63
2022/10/10 08:19:14;;;;;;;15.95;6.50;;;13.60;99.90;;;;;;5034594;28;20033;-63
2022/10/10 08:21:39;;;;;;;10.73;5.72;;;13.60;99.90;;;;;;5034920;28;20028;-63
2022/10/10 08:24:05;;;;;;;9.68;5.50;;;13.70;99.90;;;;;;5034377;28;20033;-63
2022/10/10 08:26:32;;;;;;;10.43;5.60;;;13.70;99.90;;;;;;5034797;28;20049;-63
2022/10/10 08:28:57;;;;;;;13.77;6.00;;;13.70;99.90;;;;;;5034972;28;20104;-64
2022/10/10 08:31:23;;;;;;;10.65;6.25;;;13.80;99.90;;;;;;5034348;28;20545;-63
2022/10/10 08:33:50;;;;;;;13.90;5.70;;;13.80;99.90;;;;;;5033098;28;20052;-64
2022/10/10 08:36:19;;;;;;;15.45;5.93;;;13.80;99.90;;;;;;5034521;28;20022;-63
2022/10/10 08:38:46;;;;;;;11.45;5.00;;;13.90;99.90;;;;;;5034148;28;20036;-63
2022/10/10 08:41:41;;;;;;;13.02;5.32;;;13.90;99.90;;;;;;5034724;28;20112;-63
2022/10/10 08:44:35;;;;;;;13.48;5.53;;;13.90;99.90;;;;;;5034541;28;20037;-63
2022/10/10 08:47:49;;;;;;;15.75;7.43;;;14.00;99.90;;;;;;5034483;28;20026;-64
2022/10/10 08:50:41;;;;;;;12.05;5.65;;;13.90;99.90;;;;;;5010952;28;20038;-64
2022/10/10 08:53:32;;;;;;;11.63;4.72;;;13.90;99.90;;;;;;5012812;28;20038;-63
2022/10/10 08:55:58;;;;;;;11.27;4.45;;;14.00;99.90;;;;;;5014501;28;20035;-63
2022/10/10 08:58:33;;;;;;;10.85;5.40;;;14.00;99.90;;;;;;5014405;28;20026;-64
2022/10/10 09:01:04;;;;;;;11.38;5.32;;;14.10;99.90;;;;;;5014563;28;20036;-63
2022/10/10 09:03:47;;;;;;;5.68;4.47;;;14.10;99.90;;;;;;5014200;28;20030;-64
2022/10/10 09:06:27;;;;;;;11.80;5.00;;;14.10;99.90;;;;;;5014344;28;20036;-64
2022/10/10 09:09:09;;;;;;;11.75;5.47;;;14.10;99.90;;;;;;5013998;28;20529;-63
2022/10/10 09:11:57;;;;;;;9.07;5.22;;;14.10;99.90;;;;;;5014282;28;20053;-63
2022/10/10 09:14:54;;;;;;;6.78;4.45;;;14.20;99.90;;;;;;5010543;28;20053;-64
2022/10/10 09:17:37;;;;;;;12.23;4.82;;;14.20;99.90;;;;;;5014185;28;20148;-64
2022/10/10 09:20:02;;;;;;;;;;;14.20;99.90;;;;;;5014382;28;20030;-64
2022/10/10 09:22:32;;;;;;;7.70;4.63;;;14.20;99.90;;;;;;5013871;28;19914;-64
2022/10/10 09:25:15;;;;;;;7.78;4.65;;;14.20;99.90;;;;;;5013892;28;20099;-64
2022/10/10 09:27:46;;;;;;;9.75;4.93;;;14.30;99.90;;;;;;5013982;28;20541;-63
2022/10/10 09:30:18;;;;;;;11.25;4.97;;;14.30;99.90;;;;;;5014036;28;20022;-63
2022/10/10 09:32:53;;;;;;;8.85;4.38;;;14.30;99.90;;;;;;5014167;28;20031;-64
2022/10/10 09:35:27;;;;;;;10.88;5.68;;;14.40;99.90;;;;;;5013683;28;20034;-64
2022/10/10 09:38:17;;;;;;;13.40;4.60;;;14.40;99.90;;;;;;5013564;28;20022;-64
2022/10/10 09:40:48;;;;;;;8.05;4.25;;;14.40;99.90;;;;;;5002588;28;20113;-64
2022/10/10 09:43:18;;;;;;;11.50;4.93;;;14.40;99.90;;;;;;5013874;28;20053;-64
2022/10/10 09:45:51;;;;;;;12.00;4.88;;;14.50;99.90;;;;;;5013545;28;20498;-63
2022/10/10 09:48:18;;;;;;;9.35;4.32;;;14.50;99.90;;;;;;5013753;28;20108;-63
2022/10/10 09:50:44;;;;;;;8.38;4.68;;;14.50;99.90;;;;;;5013374;28;20026;-63
2022/10/10 09:53:15;;;;;;;9.75;4.68;;;14.60;99.90;;;;;;5013598;28;20536;-63
2022/10/10 09:55:41;;;;;;;12.77;5.05;;;14.60;99.90;;;;;;5013147;28;20022;-63
2022/10/10 09:58:19;;;;;;;10.13;4.85;;;14.60;99.90;;;;;;5013598;28;20080;-64
2022/10/10 10:00:45;;;;;;;11.63;4.63;;;14.70;99.90;;;;;;5013164;28;20049;-63
2022/10/10 10:03:16;;;;;;;8.50;4.25;;;14.60;99.90;;;;;;5013382;28;20471;-63
2022/10/10 10:06:02;;;;;;;10.18;4.53;;;14.70;99.90;;;;;;5013268;28;20022;-64
2022/10/10 10:08:33;;;;;;;13.07;5.72;;;14.70;99.90;;;;;;5013210;28;20073;-62
2022/10/10 10:11:00;;;;;;;8.65;4.28;;;14.80;99.90;;;;;;5013221;28;20026;-63
2022/10/10 10:13:32;;;;;;;11.35;4.28;;;14.80;99.90;;;;;;5013084;28;20066;-63
2022/10/10 10:16:01;;;;;;;11.35;4.82;;;14.80;99.90;;;;;;5013276;28;20098;-64
2022/10/10 10:18:28;;;;;;;10.05;3.75;;;14.80;99.90;;;;;;5013247;28;20034;-63
2022/10/10 10:21:11;;;;;;;7.68;4.50;;;14.80;99.90;;;;;;5011855;28;20025;-63
2022/10/10 10:23:41;;;;;;;10.10;4.97;;;14.90;99.90;;;;;;5013212;28;20041;-64
2022/10/10 10:26:42;;;;;;;11.80;4.28;;;14.90;99.90;;;;;;5012923;28;20025;-64
2022/10/10 10:29:26;;;;;;;8.35;4.57;;;14.90;99.90;;;;;;5013071;28;20108;-64
2022/10/10 10:32:04;;;;;;;8.35;3.95;;;15.00;99.90;;;;;;5013041;28;20022;-63
2022/10/10 10:34:36;;;;;;;11.60;4.40;;;15.00;99.90;;;;;;5013275;28;20038;-63
2022/10/10 10:37:26;;;;;;;8.63;4.40;;;15.00;99.90;;;;;;5013173;28;20026;-65
2022/10/10 10:40:24;;;;;;;11.07;4.25;;;15.00;99.90;;;;;;5012942;28;20109;-62
2022/10/10 10:43:11;;;;;;;8.40;4.18;;;15.10;99.90;;;;;;5008644;28;20558;-64
2022/10/10 10:46:13;;;;;;;9.75;4.30;;;15.10;99.90;;;;;;5012812;28;20034;-64
2022/10/10 10:48:44;;;;;;;8.50;4.32;;;15.10;99.90;;;;;;5012647;28;20026;-63
2022/10/10 10:51:34;;;;;;;8.23;3.75;;;15.20;99.90;;;;;;5013123;28;20018;-64
2022/10/10 10:54:06;;;;;;;7.32;3.88;;;15.20;99.90;;;;;;5012841;28;20038;-63
2022/10/10 10:56:34;;;;;;;;;;;15.20;99.90;;;;;;5013230;28;20022;-64
2022/10/10 10:59:06;;;;;;;7.85;3.58;;;15.20;99.90;;;;;;5012989;28;19955;-64
2022/10/10 11:02:05;;;;;;;9.85;3.65;;;15.20;99.90;;;;;;5012796;28;20489;-64
2022/10/10 11:04:52;;;;;;;9.18;3.60;;;15.30;99.90;;;;;;5004122;28;20049;-64
2022/10/10 11:07:24;;;;;;;10.07;4.07;;;15.40;99.90;;;;;;5012499;28;20100;-64
2022/10/10 11:10:15;;;;;;;11.32;4.70;;;15.40;99.90;;;;;;5016452;28;20105;-64
2022/10/10 11:13:05;;;;;;;5.27;3.23;;;15.40;99.90;;;;;;5016434;28;20105;-64
2022/10/10 11:15:33;;;;;;;7.63;3.65;;;15.40;99.90;;;;;;5015122;28;20293;-64
2022/10/10 11:18:13;;;;;;;10.73;4.30;;;15.40;99.90;;;;;;5031270;28;20025;-64
2022/10/10 11:21:04;;;;;;;11.32;3.88;;;15.50;99.90;;;;;;5016372;28;20072;-64
2022/10/10 11:23:35;;;;;;;8.82;3.70;;;15.50;99.90;;;;;;5015827;28;20052;-64
2022/10/10 11:26:01;;;;;;;10.80;4.80;;;15.60;99.90;;;;;;5016363;28;20030;-63
2022/10/10 11:28:36;;;;;;;8.88;3.80;;;15.60;99.90;;;;;;5016122;28;20033;-63
2022/10/10 11:31:20;;;;;;;12.48;4.63;;;15.60;99.90;;;;;;5016116;28;20052;-64
2022/10/10 11:33:51;;;;;;;11.82;5.70;;;15.60;99.90;;;;;;5015646;28;20037;-63
2022/10/10 11:36:21;;;;;;;7.30;3.80;;;15.60;99.90;;;;;;5016074;28;20077;-63
2022/10/10 11:38:53;;;;;;;9.98;4.35;;;15.70;99.90;;;;;;5015788;28;20273;-63
2022/10/10 11:41:24;;;;;;;;;;;15.70;99.90;;;;;;5016508;28;20029;-63
2022/10/10 11:43:59;;;;;;;9.18;4.22;;;15.70;99.90;;;;;;5015841;28;19906;-63
2022/10/10 11:46:43;;;;;;;7.65;4.50;;;15.70;99.90;;;;;;5015615;28;20144;-63
2022/10/10 11:49:12;;;;;;;10.30;4.80;;;15.80;99.90;;;;;;5015742;28;20052;-63
2022/10/10 11:51:55;;;;;;;12.45;4.95;;;15.80;99.90;;;;;;5016161;28;20030;-63
2022/10/10 11:54:54;;;;;;;13.65;5.20;;;15.80;99.90;;;;;;5015479;28;20391;-63
2022/10/10 11:57:28;;;;;;;12.60;4.63;;;15.80;99.90;;;;;;5015516;28;20077;-63
2022/10/10 12:00:04;;;;;;;11.77;4.95;;;15.90;99.90;;;;;;5015671;28;20025;-63
2022/10/10 12:02:36;;;;;;;13.38;5.80;;;15.90;99.90;;;;;;5015241;28;20025;-64
2022/10/10 12:05:04;;;;;;;15.70;5.90;;;16.00;99.90;;;;;;5015563;28;20546;-63
2022/10/10 12:07:57;;;;;;;12.95;5.90;;;16.00;99.90;;;;;;5015176;28;20026;-62
2022/10/10 12:10:41;;;;;;;20.85;7.28;;;16.00;99.90;;;;;;5015669;28;20021;-63
2022/10/10 12:13:28;;;;;;;11.70;5.65;;;16.00;99.90;;;;;;5015232;28;20538;-63
2022/10/10 12:15:55;;;;;;;13.15;6.43;;;16.00;99.90;;;;;;5015025;28;20022;-63
2022/10/10 12:18:27;;;;;;;10.63;5.55;;;16.10;99.90;;;;;;5014987;28;20050;-63
2022/10/10 12:21:11;;;;;;;15.02;5.75;;;16.10;99.90;;;;;;5015213;28;20026;-63
2022/10/10 12:23:39;;;;;;;10.27;5.05;;;16.10;99.90;;;;;;5015018;28;20026;-64
2022/10/10 12:26:05;;;;;;;8.73;4.20;;;16.10;99.90;;;;;;5015130;28;20025;-63
2022/10/10 12:28:55;;;;;;;11.55;4.57;;;16.20;99.90;;;;;;5015103;28;20375;-64
2022/10/10 12:31:34;;;;;;;7.60;4.78;;;16.20;99.90;;;;;;5014578;28;20038;-64
2022/10/10 12:34:08;;;;;;;8.10;4.07;;;16.20;99.90;;;;;;5014921;28;20057;-64
2022/10/10 12:36:39;;;;;;;17.27;5.95;;;16.20;99.90;;;;;;5014901;28;20026;-65
2022/10/10 12:39:06;;;;;;;7.63;4.80;;;16.20;99.90;;;;;;5014798;28;20030;-62
2022/10/10 12:41:41;;;;;;;12.95;5.75;;;16.30;99.90;;;;;;5014967;28;20057;-64
2022/10/10 12:44:34;;;;;;;11.70;5.28;;;16.30;99.90;;;;;;5014472;28;20485;-64
2022/10/10 12:47:15;;;;;;;12.38;4.40;;;16.30;99.90;;;;;;5014706;28;20439;-64
2022/10/10 12:50:01;;;;;;;10.32;4.82;;;16.40;99.90;;;;;;5014678;28;20037;-64
2022/10/10 12:52:43;;;;;;;8.68;4.50;;;16.40;99.90;;;;;;5014618;28;20026;-64
2022/10/10 12:55:22;;;;;;;12.00;5.07;;;16.40;99.90;;;;;;5014518;28;20085;-64
2022/10/10 12:57:51;;;;;;;9.63;4.70;;;16.40;99.90;;;;;;5014585;28;20026;-63
2022/10/10 13:00:18;;;;;;;8.32;4.82;;;16.40;99.90;;;;;;5014306;28;20049;-63
2022/10/10 13:02:55;;;;;;;7.50;4.80;;;16.50;99.90;;;;;;5014626;28;20029;-64